createdAt,value
2018-08-09T00:00:46.634Z,100485.59
2018-08-09T00:03:14.449Z,100482.54
2018-08-09T00:05:42.327Z,100469.95
2018-08-09T00:08:10.204Z,100463.33
2018-08-09T00:10:38.028Z,100458.56
2018-08-09T00:13:05.829Z,100462.11
2018-08-09T00:15:33.677Z,100465.44
2018-08-09T00:18:01.500Z,100464.70
2018-08-09T00:20:29.306Z,100459.33
2018-08-09T00:22:57.139Z,100462.27
2018-08-09T00:25:24.944Z,100451.31
2018-08-09T00:27:52.728Z,100470.08
2018-08-09T00:30:20.603Z,100461.31
2018-08-09T00:32:48.412Z,100472.92
2018-08-09T00:35:16.202Z,100470.60
2018-08-09T00:37:44.008Z,100463.02
2018-08-09T00:40:11.823Z,100458.63
2018-08-09T00:42:39.657Z,100468.52
2018-08-09T00:45:07.496Z,100468.52
2018-08-09T00:47:35.272Z,100463.14
2018-08-09T00:50:03.188Z,100455.23
2018-08-09T00:52:30.977Z,100457.55
2018-08-09T00:54:58.805Z,100447.28
2018-08-09T00:57:26.613Z,100452.88
2018-08-09T00:59:54.386Z,100461.31
2018-08-09T01:02:22.351Z,100464.64
2018-08-09T01:04:50.118Z,100467.59
2018-08-09T01:07:18.121Z,100470.28
2018-08-09T01:09:45.957Z,100448.78
2018-08-09T01:12:13.801Z,100439.98
2018-08-09T01:14:41.610Z,100440.35
2018-08-09T01:17:09.904Z,100445.36
2018-08-09T01:19:37.799Z,100446.37
2018-08-09T01:22:05.709Z,100437.57
2018-08-09T01:24:33.557Z,100441.97
2018-08-09T01:27:02.030Z,100431.00
2018-08-09T01:29:29.888Z,100429.87
2018-08-09T01:31:57.692Z,100421.94
2018-08-09T01:34:25.467Z,100420.10
2018-08-09T01:36:53.344Z,100423.64
2018-08-09T01:39:21.144Z,100411.06
2018-08-09T01:42:00.160Z,100415.58
2018-08-09T01:44:27.928Z,100408.50
2018-08-09T01:46:55.717Z,100413.87
2018-08-09T01:49:23.542Z,100416.22
2018-08-09T01:51:51.357Z,100420.74
2018-08-09T01:54:19.135Z,100416.71
2018-08-09T01:56:46.885Z,100404.25
2018-08-09T01:59:14.688Z,100413.81
2018-08-09T02:01:42.508Z,100393.41
2018-08-09T02:04:10.252Z,100393.41
2018-08-09T02:06:38.055Z,100395.17
2018-08-09T02:09:16.397Z,100397.50
2018-08-09T02:11:44.165Z,100372.25
2018-08-09T02:14:11.954Z,100377.73
2018-08-09T02:16:39.704Z,100390.69
2018-08-09T02:19:07.461Z,100399.47
2018-08-09T02:21:35.303Z,100400.11
2018-08-09T02:24:03.172Z,100376.05
2018-08-09T02:26:30.937Z,100371.17
2018-08-09T02:28:58.762Z,100364.51
2018-08-09T02:31:26.551Z,100370.37
2018-08-09T02:33:54.296Z,100366.34
2018-08-09T02:36:22.110Z,100356.94
2018-08-09T02:38:50.540Z,100377.35
2018-08-09T02:41:18.335Z,100378.20
2018-08-09T02:43:46.302Z,100387.02
2018-08-09T02:46:14.073Z,100400.45
2018-08-09T02:48:41.891Z,100399.48
2018-08-09T02:51:09.761Z,100367.25
2018-08-09T02:53:37.545Z,100378.33
2018-08-09T02:56:05.426Z,100412.42
2018-08-09T02:58:33.265Z,100414.73
2018-08-09T03:01:01.086Z,100411.41
2018-08-09T03:03:28.859Z,100412.16
2018-08-09T03:05:56.671Z,100407.97
2018-08-09T03:08:24.445Z,100410.05
2018-08-09T03:10:52.355Z,100415.42
2018-08-09T03:13:20.145Z,100409.91
2018-08-09T03:15:47.958Z,100406.61
2018-08-09T03:18:15.763Z,100406.45
2018-08-09T03:20:43.577Z,100398.98
2018-08-09T03:23:11.333Z,100386.16
2018-08-09T03:25:39.289Z,100394.44
2018-08-09T03:28:07.116Z,100398.47
2018-08-09T03:30:34.877Z,100389.46
2018-08-09T03:33:02.749Z,100404.36
2018-08-09T03:35:31.536Z,100421.82
2018-08-09T03:37:59.281Z,100424.66
2018-08-09T03:40:27.112Z,100413.55
2018-08-09T03:42:54.873Z,100405.58
2018-08-09T03:45:22.668Z,100405.83
2018-08-09T03:47:50.464Z,100394.66
2018-08-09T03:50:18.315Z,100400.13
2018-08-09T03:52:46.105Z,100396.19
2018-08-09T03:55:13.968Z,100393.69
2018-08-09T03:57:42.100Z,100386.27
2018-08-09T04:00:10.317Z,100396.98
2018-08-09T04:02:38.525Z,100389.25
2018-08-09T04:05:07.184Z,100389.63
2018-08-09T04:07:35.044Z,100366.77
2018-08-09T04:10:02.936Z,100388.37
2018-08-09T04:12:30.676Z,100382.25
2018-08-09T04:14:58.617Z,100383.66
2018-08-09T04:17:26.427Z,100382.23
2018-08-09T04:19:54.295Z,100392.50
2018-08-09T04:22:23.032Z,100379.33
2018-08-09T04:24:50.824Z,100369.92
2018-08-09T04:27:18.611Z,100368.98
2018-08-09T04:29:46.390Z,100368.16
2018-08-09T04:32:14.255Z,100374.78
2018-08-09T04:34:42.060Z,100369.04
2018-08-09T04:37:09.941Z,100368.67
2018-08-09T04:39:37.756Z,100374.33
2018-08-09T04:42:05.857Z,100378.36
2018-08-09T04:44:33.943Z,100369.72
2018-08-09T04:47:02.676Z,100373.63
2018-08-09T04:49:30.487Z,100368.25
2018-08-09T04:51:58.772Z,100372.40
2018-08-09T04:54:26.768Z,100363.85
2018-08-09T04:56:54.548Z,100372.28
2018-08-09T04:59:22.336Z,100370.45
2018-08-09T05:01:50.122Z,100360.55
2018-08-09T05:04:17.969Z,100363.85
2018-08-09T05:06:45.996Z,100354.17
2018-08-09T05:09:13.802Z,100359.27
2018-08-09T05:11:42.052Z,100357.69
2018-08-09T05:14:09.916Z,100355.42
2018-08-09T05:16:37.834Z,100358.77
2018-08-09T05:19:05.652Z,100361.11
2018-08-09T05:21:33.485Z,100351.39
2018-08-09T05:24:01.298Z,100363.71
2018-08-09T05:26:29.190Z,100366.20
2018-08-09T05:28:57.056Z,100360.83
2018-08-09T05:31:24.871Z,100352.89
2018-08-09T05:33:52.698Z,100349.04
2018-08-09T05:36:20.549Z,100357.27
2018-08-09T05:38:48.394Z,100374.80
2018-08-09T05:41:16.300Z,100374.16
2018-08-09T05:43:44.091Z,100372.60
2018-08-09T05:46:12.478Z,100373.58
2018-08-09T05:48:40.302Z,100367.42
2018-08-09T05:51:08.964Z,100370.20
2018-08-09T05:53:37.217Z,100363.18
2018-08-09T05:56:05.332Z,100351.61
2018-08-09T05:58:33.223Z,100360.11
2018-08-09T06:01:00.992Z,100370.55
2018-08-09T06:03:28.856Z,100387.56
2018-08-09T06:05:56.793Z,100380.39
2018-08-09T06:08:24.592Z,100375.03
2018-08-09T06:10:52.408Z,100377.55
2018-08-09T06:13:20.273Z,100373.65
2018-08-09T06:15:48.036Z,100373.13
2018-08-09T06:18:15.867Z,100365.95
2018-08-09T06:20:43.662Z,100369.68
2018-08-09T06:23:11.533Z,100379.49
2018-08-09T06:25:39.315Z,100378.81
2018-08-09T06:28:07.117Z,100375.06
2018-08-09T06:30:34.939Z,100382.54
2018-08-09T06:33:02.763Z,100373.38
2018-08-09T06:35:30.576Z,100370.81
2018-08-09T06:37:58.395Z,100378.30
2018-08-09T06:40:26.286Z,100369.50
2018-08-09T06:42:54.121Z,100385.25
2018-08-09T06:45:21.903Z,100391.17
2018-08-09T06:47:49.679Z,100391.30
2018-08-09T06:50:17.503Z,100393.72
2018-08-09T06:52:45.431Z,100392.54
2018-08-09T06:55:13.217Z,100391.11
2018-08-09T06:57:41.100Z,100393.55
2018-08-09T07:00:11.348Z,100393.28
2018-08-09T07:02:39.172Z,100385.97
2018-08-09T07:05:06.990Z,100392.81
2018-08-09T07:07:34.840Z,100389.53
2018-08-09T07:10:02.626Z,100379.84
2018-08-09T07:12:30.890Z,100388.98
2018-08-09T07:14:58.774Z,100393.83
2018-08-09T07:17:26.549Z,100401.23
2018-08-09T07:19:54.415Z,100396.51
2018-08-09T07:22:22.214Z,100400.41
2018-08-09T07:24:50.010Z,100401.52
2018-08-09T07:27:17.914Z,100405.69
2018-08-09T07:29:45.734Z,100413.89
2018-08-09T07:32:13.613Z,100418.80
2018-08-09T07:34:41.442Z,100413.20
2018-08-09T07:37:09.243Z,100413.11
2018-08-09T07:39:37.174Z,100410.66
2018-08-09T07:42:04.984Z,100413.33
2018-08-09T07:44:32.845Z,100422.53
2018-08-09T07:47:00.637Z,100422.56
2018-08-09T07:49:28.954Z,100426.81
2018-08-09T07:51:56.776Z,100422.30
2018-08-09T07:54:25.346Z,100415.00
2018-08-09T07:56:53.264Z,100413.81
2018-08-09T07:59:21.075Z,100413.05
2018-08-09T08:01:49.075Z,100404.97
2018-08-09T08:04:16.868Z,100407.25
2018-08-09T08:06:44.684Z,100413.05
2018-08-09T08:09:12.807Z,100417.90
2018-08-09T08:11:40.623Z,100415.44
2018-08-09T08:14:08.489Z,100418.70
2018-08-09T08:16:36.349Z,100424.83
2018-08-09T08:19:04.417Z,100427.22
2018-08-09T08:21:32.169Z,100429.30
2018-08-09T08:23:59.924Z,100430.39
2018-08-09T08:26:27.753Z,100446.63
2018-08-09T08:28:55.624Z,100441.36
2018-08-09T08:31:23.540Z,100442.92
2018-08-09T08:33:51.304Z,100454.13
2018-08-09T08:36:19.182Z,100453.59
2018-08-09T08:38:47.123Z,100460.84
2018-08-09T08:41:14.918Z,100465.55
2018-08-09T08:43:43.000Z,100467.64
2018-08-09T08:46:10.818Z,100469.13
2018-08-09T08:48:38.595Z,100469.92
2018-08-09T08:51:06.401Z,100464.11
2018-08-09T08:53:34.190Z,100468.66
2018-08-09T08:56:02.043Z,100473.50
2018-08-09T08:58:29.952Z,100474.05
2018-08-09T09:00:57.771Z,100474.77
2018-08-09T09:03:25.652Z,100484.26
2018-08-09T09:05:53.477Z,100474.06
2018-08-09T09:08:21.263Z,100481.07
2018-08-09T09:10:53.032Z,100479.14
2018-08-09T09:13:21.117Z,100477.56
2018-08-09T09:15:48.949Z,100473.89
2018-08-09T09:18:16.827Z,100476.60
2018-08-09T09:20:44.619Z,100474.42
2018-08-09T09:23:12.449Z,100476.41
2018-08-09T09:25:40.264Z,100476.82
2018-08-09T09:28:08.100Z,100476.80
2018-08-09T09:30:35.944Z,100481.10
2018-08-09T09:33:03.792Z,100481.92
2018-08-09T09:35:31.569Z,100472.09
2018-08-09T09:37:59.391Z,100470.45
2018-08-09T09:40:27.224Z,100466.82
2018-08-09T09:42:55.086Z,100476.41
2018-08-09T09:45:22.852Z,100466.27
2018-08-09T09:47:50.657Z,100469.75
2018-08-09T09:50:18.440Z,100471.06
2018-08-09T09:52:46.325Z,100458.19
2018-08-09T09:55:14.165Z,100460.70
2018-08-09T09:57:41.986Z,100470.52
2018-08-09T10:00:15.336Z,100474.06
2018-08-09T10:02:43.628Z,100479.30
2018-08-09T10:05:11.449Z,100480.00
2018-08-09T10:07:39.403Z,100482.82
2018-08-09T10:10:07.962Z,100477.97
2018-08-09T10:12:35.800Z,100473.88
2018-08-09T10:15:03.777Z,100480.08
2018-08-09T10:17:31.612Z,100480.71
2018-08-09T10:19:59.387Z,100482.84
2018-08-09T10:22:27.242Z,100492.57
2018-08-09T10:24:55.021Z,100491.31
2018-08-09T10:27:22.786Z,100487.75
2018-08-09T10:29:50.624Z,100493.19
2018-08-09T10:32:18.492Z,100496.78
2018-08-09T10:34:46.311Z,100506.73
2018-08-09T10:37:14.119Z,100508.16
2018-08-09T10:39:42.014Z,100509.61
2018-08-09T10:42:09.786Z,100507.42
2018-08-09T10:44:37.546Z,100517.34
2018-08-09T10:47:05.387Z,100509.02
2018-08-09T10:49:33.189Z,100515.36
2018-08-09T10:52:00.930Z,100519.39
2018-08-09T10:54:28.744Z,100518.48
2018-08-09T10:56:56.590Z,100529.04
2018-08-09T10:59:24.416Z,100534.62
2018-08-09T11:01:52.335Z,100538.33
2018-08-09T11:04:20.083Z,100532.53
2018-08-09T11:06:47.912Z,100530.98
2018-08-09T11:09:15.729Z,100532.80
2018-08-09T11:11:43.566Z,100534.42
2018-08-09T11:14:11.340Z,100540.23
2018-08-09T11:16:39.149Z,100530.19
2018-08-09T11:19:06.953Z,100524.95
2018-08-09T11:21:34.726Z,100528.07
2018-08-09T11:24:02.544Z,100526.75
2018-08-09T11:26:30.368Z,100526.08
2018-08-09T11:28:58.132Z,100533.25
2018-08-09T11:31:25.900Z,100529.16
2018-08-09T11:33:53.681Z,100536.37
2018-08-09T11:36:21.433Z,100525.92
2018-08-09T11:38:49.174Z,100532.67
2018-08-09T11:41:16.907Z,100534.59
2018-08-09T11:43:44.709Z,100537.31
2018-08-09T11:46:12.522Z,100541.22
2018-08-09T11:48:40.264Z,100543.98
2018-08-09T11:51:08.035Z,100541.02
2018-08-09T11:53:35.837Z,100543.13
2018-08-09T11:56:03.631Z,100553.54
2018-08-09T11:58:31.394Z,100545.03
2018-08-09T12:00:59.188Z,100548.95
2018-08-09T12:03:26.976Z,100553.38
2018-08-09T12:05:54.782Z,100549.66
2018-08-09T12:08:22.723Z,100561.64
2018-08-09T12:10:50.493Z,100558.30
2018-08-09T12:13:18.273Z,100558.13
2018-08-09T12:15:46.068Z,100562.83
2018-08-09T12:18:13.979Z,100565.77
2018-08-09T12:20:41.908Z,100567.25
2018-08-09T12:23:09.712Z,100576.82
2018-08-09T12:25:37.547Z,100575.03
2018-08-09T12:28:05.618Z,100580.93
2018-08-09T12:30:33.424Z,100584.18
2018-08-09T12:33:01.212Z,100596.96
2018-08-09T12:35:29.040Z,100605.61
2018-08-09T12:37:56.906Z,100605.16
2018-08-09T12:40:24.716Z,100610.42
2018-08-09T12:42:52.524Z,100615.80
2018-08-09T12:45:20.366Z,100610.55
2018-08-09T12:47:48.213Z,100612.06
2018-08-09T12:50:16.023Z,100607.34
2018-08-09T12:52:44.361Z,100610.93
2018-08-09T12:55:13.369Z,100605.53
2018-08-09T12:57:41.253Z,100615.90
2018-08-09T13:00:11.061Z,100625.71
2018-08-09T13:02:39.012Z,100625.27
2018-08-09T13:05:08.136Z,100627.80
2018-08-09T13:07:36.300Z,100622.86
2018-08-09T13:10:05.913Z,100630.71
2018-08-09T13:12:33.794Z,100627.55
2018-08-09T13:15:01.704Z,100637.19
2018-08-09T13:17:29.503Z,100632.61
2018-08-09T13:19:57.298Z,100649.08
2018-08-09T13:22:25.164Z,100659.36
2018-08-09T13:24:53.036Z,100652.80
2018-08-09T13:27:20.824Z,100636.89
2018-08-09T13:29:48.710Z,100641.00
2018-08-09T13:32:16.591Z,100645.66
2018-08-09T13:34:44.392Z,100651.73
2018-08-09T13:37:12.188Z,100656.89
2018-08-09T13:39:40.056Z,100659.47
2018-08-09T13:42:07.873Z,100654.60
2018-08-09T13:44:35.753Z,100652.05
2018-08-09T13:47:03.626Z,100647.72
2018-08-09T13:49:31.418Z,100647.33
2018-08-09T13:51:59.422Z,100644.24
2018-08-09T13:54:27.303Z,100645.06
2018-08-09T13:56:55.109Z,100639.10
2018-08-09T13:59:22.936Z,100638.19
2018-08-09T14:01:50.742Z,100643.57
2018-08-09T14:04:18.962Z,100643.37
2018-08-09T14:06:46.865Z,100644.95
2018-08-09T14:09:14.675Z,100643.55
2018-08-09T14:11:42.932Z,100642.61
2018-08-09T14:14:11.125Z,100642.00
2018-08-09T14:16:39.392Z,100651.11
2018-08-09T14:19:07.707Z,100650.73
2018-08-09T14:21:35.503Z,100647.94
2018-08-09T14:24:03.433Z,100649.88
2018-08-09T14:26:31.265Z,100640.66
2018-08-09T14:28:59.066Z,100644.91
2018-08-09T14:31:26.906Z,100656.22
2018-08-09T14:33:54.760Z,100664.61
2018-08-09T14:36:22.551Z,100671.39
2018-08-09T14:38:50.370Z,100674.88
2018-08-09T14:41:18.200Z,100684.17
2018-08-09T14:43:46.041Z,100680.31
2018-08-09T14:46:13.932Z,100674.95
2018-08-09T14:48:41.863Z,100679.94
2018-08-09T14:51:09.705Z,100694.95
2018-08-09T14:53:37.675Z,100695.31
2018-08-09T14:56:06.147Z,100698.03
2018-08-09T14:58:34.230Z,100688.72
2018-08-09T15:01:02.132Z,100699.43
2018-08-09T15:03:30.076Z,100700.44
2018-08-09T15:05:57.965Z,100701.61
2018-08-09T15:08:25.849Z,100710.29
2018-08-09T15:10:53.715Z,100707.91
2018-08-09T15:13:21.633Z,100699.25
2018-08-09T15:15:49.505Z,100705.22
2018-08-09T15:18:17.368Z,100718.79
2018-08-09T15:20:45.207Z,100716.41
2018-08-09T15:23:13.064Z,100719.09
2018-08-09T15:25:40.930Z,100720.08
2018-08-09T15:28:08.865Z,100722.27
2018-08-09T15:30:36.860Z,100721.58
2018-08-09T15:33:05.799Z,100725.15
2018-08-09T15:35:33.672Z,100720.39
2018-08-09T15:38:01.510Z,100732.27
2018-08-09T15:40:29.426Z,100725.63
2018-08-09T15:42:57.254Z,100725.94
2018-08-09T15:45:25.173Z,100730.52
2018-08-09T15:47:53.213Z,100734.73
2018-08-09T15:50:21.208Z,100728.96
2018-08-09T15:52:49.089Z,100728.14
2018-08-09T15:55:17.941Z,100735.42
2018-08-09T15:57:46.079Z,100734.20
2018-08-09T16:00:21.132Z,100736.59
2018-08-09T16:02:49.229Z,100738.09
2018-08-09T16:05:17.213Z,100740.12
2018-08-09T16:07:46.244Z,100736.88
2018-08-09T16:10:15.253Z,100740.21
2018-08-09T16:12:43.180Z,100745.28
2018-08-09T16:15:13.585Z,100746.45
2018-08-09T16:17:41.645Z,100759.48
2018-08-09T16:20:10.652Z,100755.39
2018-08-09T16:22:38.791Z,100750.13
2018-08-09T16:25:09.631Z,100752.30
2018-08-09T16:27:37.766Z,100754.31
2018-08-09T16:30:10.092Z,100742.11
2018-08-09T16:32:38.144Z,100742.47
2018-08-09T16:35:06.147Z,100745.17
2018-08-09T16:37:34.135Z,100745.00
2018-08-09T16:40:02.013Z,100745.17
2018-08-09T16:42:30.538Z,100745.17
2018-08-09T16:44:58.476Z,100743.30
2018-08-09T16:47:26.354Z,100742.55
2018-08-09T16:49:54.678Z,100741.38
2018-08-09T16:52:22.654Z,100746.09
2018-08-09T16:54:50.506Z,100748.09
2018-08-09T16:57:18.512Z,100743.67
2018-08-09T16:59:46.334Z,100750.77
2018-08-09T17:02:15.223Z,100753.41
2018-08-09T17:04:43.171Z,100755.39
2018-08-09T17:07:11.791Z,100751.16
2018-08-09T17:09:39.781Z,100755.95
2018-08-09T17:12:07.764Z,100763.67
2018-08-09T17:14:35.738Z,100771.08
2018-08-09T17:17:03.775Z,100773.03
2018-08-09T17:19:31.652Z,100769.27
2018-08-09T17:21:59.645Z,100779.20
2018-08-09T17:24:27.524Z,100784.42
2018-08-09T17:26:55.540Z,100783.69
2018-08-09T17:29:24.101Z,100790.72
2018-08-09T17:31:52.088Z,100799.45
2018-08-09T17:34:20.060Z,100794.31
2018-08-09T17:36:47.934Z,100792.95
2018-08-09T17:39:15.918Z,100802.50
2018-08-09T17:41:43.769Z,100795.82
2018-08-09T17:44:11.943Z,100797.28
2018-08-09T17:46:39.860Z,100807.69
2018-08-09T17:49:07.761Z,100801.90
2018-08-09T17:51:35.663Z,100801.48
2018-08-09T17:54:04.239Z,100801.23
2018-08-09T17:56:32.263Z,100805.75
2018-08-09T17:59:00.153Z,100809.39
2018-08-09T18:01:27.936Z,100806.98
2018-08-09T18:03:55.804Z,100817.54
2018-08-09T18:06:23.875Z,100808.81
2018-08-09T18:08:51.807Z,100811.25
2018-08-09T18:11:19.618Z,100810.80
2018-08-09T18:13:47.669Z,100806.64
2018-08-09T18:16:15.620Z,100821.10
2018-08-09T18:18:43.717Z,100819.61
2018-08-09T18:21:12.542Z,100824.17
2018-08-09T18:23:40.406Z,100829.80
2018-08-09T18:26:08.303Z,100832.38
2018-08-09T18:28:36.337Z,100835.66
2018-08-09T18:31:04.261Z,100836.57
2018-08-09T18:33:32.085Z,100844.59
2018-08-09T18:35:59.951Z,100838.98
2018-08-09T18:38:27.897Z,100840.13
2018-08-09T18:40:55.746Z,100838.86
2018-08-09T18:43:23.566Z,100838.00
2018-08-09T18:45:51.508Z,100847.62
2018-08-09T18:48:19.449Z,100844.91
2018-08-09T18:50:47.323Z,100852.05
2018-08-09T18:53:15.118Z,100851.95
2018-08-09T18:55:43.212Z,100856.92
2018-08-09T18:58:11.216Z,100868.39
2018-08-09T19:00:39.928Z,100877.31
2018-08-09T19:03:09.165Z,100880.41
2018-08-09T19:05:38.318Z,100882.57
2018-08-09T19:08:06.162Z,100882.05
2018-08-09T19:10:34.052Z,100886.59
2018-08-09T19:13:01.930Z,100884.91
2018-08-09T19:15:29.773Z,100891.59
2018-08-09T19:17:57.758Z,100898.15
2018-08-09T19:20:28.151Z,100898.43
2018-08-09T19:22:56.113Z,100902.52
2018-08-09T19:25:24.069Z,100897.92
2018-08-09T19:27:51.964Z,100897.34
2018-08-09T19:30:22.346Z,100899.21
2018-08-09T19:32:50.356Z,100899.62
2018-08-09T19:35:18.988Z,100902.69
2018-08-09T19:37:46.854Z,100900.52
2018-08-09T19:40:17.426Z,100896.25
2018-08-09T19:42:45.266Z,100900.66
2018-08-09T19:45:19.432Z,100905.07
2018-08-09T19:47:47.400Z,100905.47
2018-08-09T19:50:17.117Z,100903.30
2018-08-09T19:52:45.376Z,100905.03
2018-08-09T19:55:15.722Z,100912.98
2018-08-09T19:57:44.640Z,100909.56
2018-08-09T20:00:15.111Z,100911.07
2018-08-09T20:02:44.155Z,100914.86
2018-08-09T20:05:11.989Z,100915.36
2018-08-09T20:07:40.204Z,100910.59
2018-08-09T20:10:09.609Z,100914.39
2018-08-09T20:12:37.616Z,100914.84
2018-08-09T20:15:08.206Z,100914.34
2018-08-09T20:17:36.224Z,100920.44
2018-08-09T20:20:04.852Z,100916.55
2018-08-09T20:22:32.659Z,100914.59
2018-08-09T20:25:00.628Z,100916.66
2018-08-09T20:27:28.610Z,100917.14
2018-08-09T20:30:29.600Z,100912.50
2018-08-09T20:32:57.429Z,100912.47
2018-08-09T20:35:25.551Z,100922.34
2018-08-09T20:37:53.668Z,100923.55
2018-08-09T20:40:22.732Z,100917.03
2018-08-09T20:42:51.600Z,100917.88
2018-08-09T20:45:20.747Z,100917.12
2018-08-09T20:47:48.753Z,100913.47
2018-08-09T20:50:19.736Z,100916.10
2018-08-09T20:52:48.638Z,100912.03
2018-08-09T20:55:16.720Z,100920.17
2018-08-09T20:57:45.484Z,100911.73
2018-08-09T21:00:15.877Z,100922.44
2018-08-09T21:02:44.746Z,100918.52
2018-08-09T21:05:22.346Z,100922.67
2018-08-09T21:07:51.102Z,100920.06
2018-08-09T21:10:18.963Z,100920.05
2018-08-09T21:12:46.874Z,100917.44
2018-08-09T21:15:15.126Z,100913.14
2018-08-09T21:17:43.213Z,100918.63
2018-08-09T21:20:11.792Z,100922.88
2018-08-09T21:22:39.976Z,100923.68
2018-08-09T21:25:08.788Z,100914.38
2018-08-09T21:27:36.640Z,100919.95
2018-08-09T21:30:06.569Z,100930.42
2018-08-09T21:32:34.858Z,100926.02
2018-08-09T21:35:02.918Z,100934.66
2018-08-09T21:37:30.713Z,100925.52
2018-08-09T21:39:58.539Z,100926.88
2018-08-09T21:42:26.472Z,100930.42
2018-08-09T21:44:54.668Z,100931.53
2018-08-09T21:47:22.484Z,100936.67
2018-08-09T21:49:50.377Z,100931.47
2018-08-09T21:52:18.256Z,100936.22
2018-08-09T21:54:46.141Z,100934.78
2018-08-09T21:57:14.035Z,100936.61
2018-08-09T21:59:41.954Z,100938.07
2018-08-09T22:02:10.025Z,100942.80
2018-08-09T22:04:43.560Z,100942.32
2018-08-09T22:07:16.768Z,100944.62
2018-08-09T22:09:50.149Z,100947.08
2018-08-09T22:12:23.527Z,100942.92
2018-08-09T22:14:57.990Z,100938.91
2018-08-09T22:17:31.360Z,100934.78
2018-08-09T22:20:04.685Z,100940.53
2018-08-09T22:22:36.102Z,100927.98
2018-08-09T22:25:05.372Z,100944.90
2018-08-09T22:27:33.703Z,100948.44
2018-08-09T22:30:02.304Z,100949.08
2018-08-09T22:32:30.139Z,100958.52
2018-08-09T22:34:58.026Z,100960.20
2018-08-09T22:37:26.240Z,100947.66
2018-08-09T22:39:54.117Z,100942.08
2018-08-09T22:42:21.944Z,100939.64
2018-08-09T22:44:49.814Z,100938.69
2018-08-09T22:47:17.723Z,100942.70
2018-08-09T22:49:45.558Z,100943.31
2018-08-09T22:52:13.432Z,100955.38
2018-08-09T22:54:41.452Z,100954.14
2018-08-09T22:57:09.269Z,100960.27
2018-08-09T22:59:37.140Z,100963.06
2018-08-09T23:02:04.975Z,100958.34
2018-08-09T23:04:32.872Z,100956.90
2018-08-09T23:07:00.768Z,100957.53
2018-08-09T23:09:28.679Z,100959.73
2018-08-09T23:11:56.496Z,100959.58
2018-08-09T23:14:24.371Z,100964.70
2018-08-09T23:16:52.411Z,100972.99
2018-08-09T23:19:20.324Z,100968.36
2018-08-09T23:21:48.206Z,100966.99
2018-08-09T23:24:16.159Z,100967.47
2018-08-09T23:26:44.517Z,100963.45
2018-08-09T23:29:13.612Z,100967.86
2018-08-09T23:31:41.483Z,100959.58
2018-08-09T23:34:09.304Z,100960.04
2018-08-09T23:36:37.145Z,100963.91
2018-08-09T23:39:08.584Z,100973.06
2018-08-09T23:41:36.835Z,100967.70
2018-08-09T23:44:04.754Z,100972.20
2018-08-09T23:46:33.402Z,100978.30
2018-08-09T23:49:01.317Z,100976.00
2018-08-09T23:51:29.124Z,100978.58
2018-08-09T23:53:56.990Z,100976.00
2018-08-09T23:56:24.880Z,100983.56
2018-08-09T23:58:52.739Z,100983.56
